sensor_id;sensor_type;location;lat;lon;timestamp;temperature;humidity
19344;DHT22;9808;52.402;16.678;2022-07-04T00:00:07;18.50;99.90
19344;DHT22;9808;52.402;16.678;2022-07-04T00:02:36;18.50;99.90
19344;DHT22;9808;52.402;16.678;2022-07-04T00:05:04;18.40;99.90
19344;DHT22;9808;52.402;16.678;2022-07-04T00:07:31;18.40;99.90
19344;DHT22;9808;52.402;16.678;2022-07-04T00:09:58;18.40;99.90
19344;DHT22;9808;52.402;16.678;2022-07-04T00:12:24;18.30;99.90
19344;DHT22;9808;52.402;16.678;2022-07-04T00:14:51;18.30;99.90
19344;DHT22;9808;52.402;16.678;2022-07-04T00:17:18;18.30;99.90
19344;DHT22;9808;52.402;16.678;2022-07-04T00:19:45;18.30;99.90
19344;DHT22;9808;52.402;16.678;2022-07-04T00:22:12;18.20;99.90
19344;DHT22;9808;52.402;16.678;2022-07-04T00:24:38;18.80;99.90
19344;DHT22;9808;52.402;16.678;2022-07-04T00:27:05;18.20;99.90
19344;DHT22;9808;52.402;16.678;2022-07-04T00:29:32;18.20;99.90
19344;DHT22;9808;52.402;16.678;2022-07-04T00:32:00;18.20;99.90
19344;DHT22;9808;52.402;16.678;2022-07-04T00:34:27;18.10;99.90
19344;DHT22;9808;52.402;16.678;2022-07-04T00:36:54;18.10;99.90
19344;DHT22;9808;52.402;16.678;2022-07-04T00:39:20;18.10;99.90
19344;DHT22;9808;52.402;16.678;2022-07-04T00:41:47;18.10;99.90
19344;DHT22;9808;52.402;16.678;2022-07-04T00:44:14;18.00;99.90
19344;DHT22;9808;52.402;16.678;2022-07-04T00:46:45;18.00;99.90
19344;DHT22;9808;52.402;16.678;2022-07-04T00:49:14;18.00;99.90
19344;DHT22;9808;52.402;16.678;2022-07-04T00:51:43;17.90;99.90
19344;DHT22;9808;52.402;16.678;2022-07-04T00:54:14;17.90;99.90
19344;DHT22;9808;52.402;16.678;2022-07-04T00:56:42;17.90;99.90
19344;DHT22;9808;52.402;16.678;2022-07-04T00:59:10;17.90;99.90
19344;DHT22;9808;52.402;16.678;2022-07-04T01:01:37;17.80;99.90
19344;DHT22;9808;52.402;16.678;2022-07-04T01:04:05;17.80;99.90
19344;DHT22;9808;52.402;16.678;2022-07-04T01:06:33;17.80;99.90
19344;DHT22;9808;52.402;16.678;2022-07-04T01:09:01;17.80;99.90
19344;DHT22;9808;52.402;16.678;2022-07-04T01:11:28;17.70;99.90
19344;DHT22;9808;52.402;16.678;2022-07-04T01:13:57;17.80;99.90
19344;DHT22;9808;52.402;16.678;2022-07-04T01:16:26;17.80;99.90
19344;DHT22;9808;52.402;16.678;2022-07-04T01:18:54;17.70;99.90
19344;DHT22;9808;52.402;16.678;2022-07-04T01:21:21;17.70;99.90
19344;DHT22;9808;52.402;16.678;2022-07-04T01:23:48;17.60;99.90
19344;DHT22;9808;52.402;16.678;2022-07-04T01:26:15;17.70;99.90
19344;DHT22;9808;52.402;16.678;2022-07-04T01:28:44;17.70;99.90
19344;DHT22;9808;52.402;16.678;2022-07-04T01:31:11;17.70;99.90
19344;DHT22;9808;52.402;16.678;2022-07-04T01:33:40;17.60;99.90
19344;DHT22;9808;52.402;16.678;2022-07-04T01:36:07;17.60;99.90
19344;DHT22;9808;52.402;16.678;2022-07-04T01:38:34;17.60;99.90
19344;DHT22;9808;52.402;16.678;2022-07-04T01:41:00;17.60;99.90
19344;DHT22;9808;52.402;16.678;2022-07-04T01:43:27;17.50;99.90
19344;DHT22;9808;52.402;16.678;2022-07-04T01:45:54;17.50;99.90
19344;DHT22;9808;52.402;16.678;2022-07-04T01:48:20;17.50;99.90
19344;DHT22;9808;52.402;16.678;2022-07-04T01:50:47;17.40;99.90
19344;DHT22;9808;52.402;16.678;2022-07-04T01:53:14;17.40;99.90
19344;DHT22;9808;52.402;16.678;2022-07-04T01:55:41;17.40;99.90
19344;DHT22;9808;52.402;16.678;2022-07-04T01:58:07;17.30;99.90
19344;DHT22;9808;52.402;16.678;2022-07-04T02:00:34;17.30;99.90
19344;DHT22;9808;52.402;16.678;2022-07-04T02:03:19;17.30;99.90
19344;DHT22;9808;52.402;16.678;2022-07-04T02:05:46;17.20;99.90
19344;DHT22;9808;52.402;16.678;2022-07-04T02:08:13;17.20;99.90
19344;DHT22;9808;52.402;16.678;2022-07-04T02:10:39;17.20;99.90
19344;DHT22;9808;52.402;16.678;2022-07-04T02:13:06;17.10;99.90
19344;DHT22;9808;52.402;16.678;2022-07-04T02:15:38;17.10;99.90
19344;DHT22;9808;52.402;16.678;2022-07-04T02:18:07;17.10;99.90
19344;DHT22;9808;52.402;16.678;2022-07-04T02:20:35;17.00;99.90
19344;DHT22;9808;52.402;16.678;2022-07-04T02:23:03;17.00;99.90
19344;DHT22;9808;52.402;16.678;2022-07-04T02:25:31;17.00;99.90
19344;DHT22;9808;52.402;16.678;2022-07-04T02:27:58;16.90;99.90
19344;DHT22;9808;52.402;16.678;2022-07-04T02:30:25;17.10;99.90
19344;DHT22;9808;52.402;16.678;2022-07-04T02:32:52;16.90;99.90
19344;DHT22;9808;52.402;16.678;2022-07-04T02:35:19;16.80;99.90
19344;DHT22;9808;52.402;16.678;2022-07-04T02:37:45;16.80;99.90
19344;DHT22;9808;52.402;16.678;2022-07-04T02:40:12;16.80;99.90
19344;DHT22;9808;52.402;16.678;2022-07-04T02:42:39;16.80;99.90
19344;DHT22;9808;52.402;16.678;2022-07-04T02:45:06;16.70;99.90
19344;DHT22;9808;52.402;16.678;2022-07-04T02:47:33;16.70;99.90
19344;DHT22;9808;52.402;16.678;2022-07-04T02:50:01;16.70;99.90
19344;DHT22;9808;52.402;16.678;2022-07-04T02:52:29;16.70;99.90
19344;DHT22;9808;52.402;16.678;2022-07-04T02:54:57;16.60;99.90
19344;DHT22;9808;52.402;16.678;2022-07-04T02:57:24;16.60;99.90
19344;DHT22;9808;52.402;16.678;2022-07-04T02:59:51;16.60;99.90
19344;DHT22;9808;52.402;16.678;2022-07-04T03:02:17;16.60;99.90
19344;DHT22;9808;52.402;16.678;2022-07-04T03:04:44;16.60;99.90
19344;DHT22;9808;52.402;16.678;2022-07-04T03:07:12;16.60;99.90
19344;DHT22;9808;52.402;16.678;2022-07-04T03:09:38;16.60;99.90
19344;DHT22;9808;52.402;16.678;2022-07-04T03:12:06;16.60;99.90
19344;DHT22;9808;52.402;16.678;2022-07-04T03:14:34;16.70;99.90
19344;DHT22;9808;52.402;16.678;2022-07-04T03:17:01;16.60;99.90
19344;DHT22;9808;52.402;16.678;2022-07-04T03:19:28;16.60;99.90
19344;DHT22;9808;52.402;16.678;2022-07-04T03:21:54;16.70;99.90
19344;DHT22;9808;52.402;16.678;2022-07-04T03:24:21;16.80;99.90
19344;DHT22;9808;52.402;16.678;2022-07-04T03:26:48;16.80;99.90
19344;DHT22;9808;52.402;16.678;2022-07-04T03:29:14;16.80;99.90
19344;DHT22;9808;52.402;16.678;2022-07-04T03:31:41;16.90;99.90
19344;DHT22;9808;52.402;16.678;2022-07-04T03:34:08;16.90;99.90
19344;DHT22;9808;52.402;16.678;2022-07-04T03:36:35;16.90;99.90
19344;DHT22;9808;52.402;16.678;2022-07-04T03:39:02;17.00;99.90
19344;DHT22;9808;52.402;16.678;2022-07-04T03:41:29;17.10;99.90
19344;DHT22;9808;52.402;16.678;2022-07-04T03:43:56;17.20;99.90
19344;DHT22;9808;52.402;16.678;2022-07-04T03:46:23;17.30;99.90
19344;DHT22;9808;52.402;16.678;2022-07-04T03:48:50;17.40;99.90
19344;DHT22;9808;52.402;16.678;2022-07-04T03:51:16;17.50;99.90
19344;DHT22;9808;52.402;16.678;2022-07-04T03:53:43;17.50;99.90
19344;DHT22;9808;52.402;16.678;2022-07-04T03:56:11;17.60;99.90
19344;DHT22;9808;52.402;16.678;2022-07-04T03:58:38;17.70;99.90
19344;DHT22;9808;52.402;16.678;2022-07-04T04:01:05;17.60;99.90
19344;DHT22;9808;52.402;16.678;2022-07-04T04:03:32;17.70;99.90
19344;DHT22;9808;52.402;16.678;2022-07-04T04:06:17;17.80;99.90
19344;DHT22;9808;52.402;16.678;2022-07-04T04:08:44;17.80;99.90
19344;DHT22;9808;52.402;16.678;2022-07-04T04:11:11;17.90;99.90
19344;DHT22;9808;52.402;16.678;2022-07-04T04:13:38;17.80;99.90
19344;DHT22;9808;52.402;16.678;2022-07-04T04:16:04;18.00;99.90
19344;DHT22;9808;52.402;16.678;2022-07-04T04:18:31;18.10;99.90
19344;DHT22;9808;52.402;16.678;2022-07-04T04:20:58;18.10;99.90
19344;DHT22;9808;52.402;16.678;2022-07-04T04:23:25;18.80;99.90
19344;DHT22;9808;52.402;16.678;2022-07-04T04:25:51;18.30;99.90
19344;DHT22;9808;52.402;16.678;2022-07-04T04:28:21;18.50;99.90
19344;DHT22;9808;52.402;16.678;2022-07-04T04:30:49;18.60;99.90
19344;DHT22;9808;52.402;16.678;2022-07-04T04:33:16;18.80;99.90
19344;DHT22;9808;52.402;16.678;2022-07-04T04:35:43;18.80;99.90
19344;DHT22;9808;52.402;16.678;2022-07-04T04:38:09;18.90;99.90
19344;DHT22;9808;52.402;16.678;2022-07-04T04:40:36;19.00;99.90
19344;DHT22;9808;52.402;16.678;2022-07-04T04:43:03;19.20;99.90
19344;DHT22;9808;52.402;16.678;2022-07-04T04:45:30;19.30;99.90
19344;DHT22;9808;52.402;16.678;2022-07-04T04:47:56;19.50;99.90
19344;DHT22;9808;52.402;16.678;2022-07-04T04:50:23;19.70;99.90
19344;DHT22;9808;52.402;16.678;2022-07-04T04:52:50;19.90;99.90
19344;DHT22;9808;52.402;16.678;2022-07-04T04:55:16;20.40;99.90
19344;DHT22;9808;52.402;16.678;2022-07-04T04:57:43;20.30;99.90
19344;DHT22;9808;52.402;16.678;2022-07-04T05:00:10;20.60;99.90
19344;DHT22;9808;52.402;16.678;2022-07-04T05:02:37;20.90;99.90
19344;DHT22;9808;52.402;16.678;2022-07-04T05:05:04;21.10;99.90
19344;DHT22;9808;52.402;16.678;2022-07-04T05:07:32;21.30;99.90
19344;DHT22;9808;52.402;16.678;2022-07-04T05:10:00;21.40;99.90
19344;DHT22;9808;52.402;16.678;2022-07-04T05:12:27;21.40;99.90
19344;DHT22;9808;52.402;16.678;2022-07-04T05:14:55;21.40;99.90
19344;DHT22;9808;52.402;16.678;2022-07-04T05:17:22;21.40;99.90
19344;DHT22;9808;52.402;16.678;2022-07-04T05:19:48;21.40;99.90
19344;DHT22;9808;52.402;16.678;2022-07-04T05:22:15;21.40;99.90
19344;DHT22;9808;52.402;16.678;2022-07-04T05:24:42;21.30;99.90
19344;DHT22;9808;52.402;16.678;2022-07-04T05:27:10;21.30;99.90
19344;DHT22;9808;52.402;16.678;2022-07-04T05:29:37;21.20;99.90
19344;DHT22;9808;52.402;16.678;2022-07-04T05:32:05;21.20;99.90
19344;DHT22;9808;52.402;16.678;2022-07-04T05:34:32;21.20;99.90
19344;DHT22;9808;52.402;16.678;2022-07-04T05:36:59;21.20;99.90
19344;DHT22;9808;52.402;16.678;2022-07-04T05:39:26;21.10;99.90
19344;DHT22;9808;52.402;16.678;2022-07-04T05:41:53;21.10;99.90
19344;DHT22;9808;52.402;16.678;2022-07-04T05:44:19;21.00;99.90
19344;DHT22;9808;52.402;16.678;2022-07-04T05:46:46;20.90;99.90
19344;DHT22;9808;52.402;16.678;2022-07-04T05:49:13;21.00;99.90
19344;DHT22;9808;52.402;16.678;2022-07-04T05:51:40;20.80;99.90
19344;DHT22;9808;52.402;16.678;2022-07-04T05:54:06;20.80;99.90
19344;DHT22;9808;52.402;16.678;2022-07-04T05:56:33;21.10;99.90
19344;DHT22;9808;52.402;16.678;2022-07-04T05:59:00;21.60;99.90
19344;DHT22;9808;52.402;16.678;2022-07-04T06:01:27;21.70;99.90
19344;DHT22;9808;52.402;16.678;2022-07-04T06:03:53;21.90;99.90
19344;DHT22;9808;52.402;16.678;2022-07-04T06:06:20;22.30;99.90
19344;DHT22;9808;52.402;16.678;2022-07-04T06:08:47;22.70;99.90
19344;DHT22;9808;52.402;16.678;2022-07-04T06:11:14;22.90;99.90
19344;DHT22;9808;52.402;16.678;2022-07-04T06:13:42;23.20;99.90
19344;DHT22;9808;52.402;16.678;2022-07-04T06:16:09;23.60;99.90
19344;DHT22;9808;52.402;16.678;2022-07-04T06:18:36;24.20;99.90
19344;DHT22;9808;52.402;16.678;2022-07-04T06:21:02;24.50;99.90
19344;DHT22;9808;52.402;16.678;2022-07-04T06:23:29;24.40;99.90
19344;DHT22;9808;52.402;16.678;2022-07-04T06:25:56;24.40;99.90
19344;DHT22;9808;52.402;16.678;2022-07-04T06:28:23;24.20;99.90
19344;DHT22;9808;52.402;16.678;2022-07-04T06:31:11;24.20;99.90
19344;DHT22;9808;52.402;16.678;2022-07-04T06:33:41;24.20;99.90
19344;DHT22;9808;52.402;16.678;2022-07-04T06:36:26;24.10;99.90
19344;DHT22;9808;52.402;16.678;2022-07-04T06:38:53;24.10;99.90
19344;DHT22;9808;52.402;16.678;2022-07-04T06:41:20;24.00;99.90
19344;DHT22;9808;52.402;16.678;2022-07-04T06:43:46;24.00;99.90
19344;DHT22;9808;52.402;16.678;2022-07-04T06:46:13;23.90;99.90
19344;DHT22;9808;52.402;16.678;2022-07-04T06:48:40;23.90;99.90
19344;DHT22;9808;52.402;16.678;2022-07-04T06:51:07;23.90;99.90
19344;DHT22;9808;52.402;16.678;2022-07-04T06:53:34;23.80;99.90
19344;DHT22;9808;52.402;16.678;2022-07-04T06:56:01;23.80;99.90
19344;DHT22;9808;52.402;16.678;2022-07-04T06:58:28;23.70;99.90
19344;DHT22;9808;52.402;16.678;2022-07-04T07:00:55;23.70;99.90
19344;DHT22;9808;52.402;16.678;2022-07-04T07:03:21;23.60;99.90
19344;DHT22;9808;52.402;16.678;2022-07-04T07:05:48;23.60;99.90
19344;DHT22;9808;52.402;16.678;2022-07-04T07:08:25;23.50;99.90
19344;DHT22;9808;52.402;16.678;2022-07-04T07:10:56;23.40;99.90
19344;DHT22;9808;52.402;16.678;2022-07-04T07:13:23;23.40;99.90
19344;DHT22;9808;52.402;16.678;2022-07-04T07:15:50;23.50;99.90
19344;DHT22;9808;52.402;16.678;2022-07-04T07:18:16;23.60;99.90
19344;DHT22;9808;52.402;16.678;2022-07-04T07:20:43;23.80;99.90
19344;DHT22;9808;52.402;16.678;2022-07-04T07:23:10;23.60;99.90
19344;DHT22;9808;52.402;16.678;2022-07-04T07:25:37;23.70;99.90
19344;DHT22;9808;52.402;16.678;2022-07-04T07:28:04;23.60;99.90
19344;DHT22;9808;52.402;16.678;2022-07-04T07:30:32;23.80;99.90
19344;DHT22;9808;52.402;16.678;2022-07-04T07:32:59;23.90;99.90
19344;DHT22;9808;52.402;16.678;2022-07-04T07:35:25;24.10;99.90
19344;DHT22;9808;52.402;16.678;2022-07-04T07:37:52;24.30;99.90
19344;DHT22;9808;52.402;16.678;2022-07-04T07:40:19;24.20;99.90
19344;DHT22;9808;52.402;16.678;2022-07-04T07:42:46;24.10;99.90
19344;DHT22;9808;52.402;16.678;2022-07-04T07:45:13;24.00;99.90
19344;DHT22;9808;52.402;16.678;2022-07-04T07:47:39;24.00;99.90
19344;DHT22;9808;52.402;16.678;2022-07-04T07:50:06;23.90;99.90
19344;DHT22;9808;52.402;16.678;2022-07-04T07:52:33;23.80;99.90
19344;DHT22;9808;52.402;16.678;2022-07-04T07:55:00;23.60;99.90
19344;DHT22;9808;52.402;16.678;2022-07-04T07:57:29;23.60;99.90
19344;DHT22;9808;52.402;16.678;2022-07-04T07:59:56;23.50;99.90
19344;DHT22;9808;52.402;16.678;2022-07-04T08:02:23;23.50;99.90
19344;DHT22;9808;52.402;16.678;2022-07-04T08:05:11;23.50;99.90
19344;DHT22;9808;52.402;16.678;2022-07-04T08:07:38;23.60;99.90
19344;DHT22;9808;52.402;16.678;2022-07-04T08:10:05;23.80;99.90
19344;DHT22;9808;52.402;16.678;2022-07-04T08:12:33;24.00;99.90
19344;DHT22;9808;52.402;16.678;2022-07-04T08:15:00;24.10;99.90
19344;DHT22;9808;52.402;16.678;2022-07-04T08:17:33;24.20;99.90
19344;DHT22;9808;52.402;16.678;2022-07-04T08:20:00;24.30;99.90
19344;DHT22;9808;52.402;16.678;2022-07-04T08:22:27;24.50;99.90
19344;DHT22;9808;52.402;16.678;2022-07-04T08:24:53;24.70;99.90
19344;DHT22;9808;52.402;16.678;2022-07-04T08:27:20;24.80;99.90
19344;DHT22;9808;52.402;16.678;2022-07-04T08:29:57;24.80;99.90
19344;DHT22;9808;52.402;16.678;2022-07-04T08:32:24;24.90;99.90
19344;DHT22;9808;52.402;16.678;2022-07-04T08:34:51;24.90;99.90
19344;DHT22;9808;52.402;16.678;2022-07-04T08:37:18;25.00;99.90
19344;DHT22;9808;52.402;16.678;2022-07-04T08:39:44;25.00;99.90
19344;DHT22;9808;52.402;16.678;2022-07-04T08:42:21;25.10;99.90
19344;DHT22;9808;52.402;16.678;2022-07-04T08:44:50;25.20;99.90
19344;DHT22;9808;52.402;16.678;2022-07-04T08:47:22;25.30;99.90
19344;DHT22;9808;52.402;16.678;2022-07-04T08:50:10;25.50;99.90
19344;DHT22;9808;52.402;16.678;2022-07-04T08:52:42;25.70;99.90
19344;DHT22;9808;52.402;16.678;2022-07-04T08:55:12;25.90;99.90
19344;DHT22;9808;52.402;16.678;2022-07-04T08:57:58;25.90;99.90
19344;DHT22;9808;52.402;16.678;2022-07-04T09:00:44;26.00;99.90
19344;DHT22;9808;52.402;16.678;2022-07-04T09:03:11;26.00;99.90
19344;DHT22;9808;52.402;16.678;2022-07-04T09:05:38;26.00;99.90
19344;DHT22;9808;52.402;16.678;2022-07-04T09:08:06;26.00;99.90
19344;DHT22;9808;52.402;16.678;2022-07-04T09:10:33;26.10;99.90
19344;DHT22;9808;52.402;16.678;2022-07-04T09:13:08;26.10;99.90
19344;DHT22;9808;52.402;16.678;2022-07-04T09:15:38;26.20;99.90
19344;DHT22;9808;52.402;16.678;2022-07-04T09:18:05;26.30;99.90
19344;DHT22;9808;52.402;16.678;2022-07-04T09:20:32;26.40;99.90
19344;DHT22;9808;52.402;16.678;2022-07-04T09:22:59;26.50;99.90
19344;DHT22;9808;52.402;16.678;2022-07-04T09:25:26;26.60;99.90
19344;DHT22;9808;52.402;16.678;2022-07-04T09:27:55;26.70;99.90
19344;DHT22;9808;52.402;16.678;2022-07-04T09:30:25;26.70;99.90
19344;DHT22;9808;52.402;16.678;2022-07-04T09:32:57;26.70;99.90
19344;DHT22;9808;52.402;16.678;2022-07-04T09:35:29;26.80;99.90
19344;DHT22;9808;52.402;16.678;2022-07-04T09:37:59;26.90;99.90
19344;DHT22;9808;52.402;16.678;2022-07-04T09:42:55;27.00;99.90
19344;DHT22;9808;52.402;16.678;2022-07-04T09:45:22;27.10;99.90
19344;DHT22;9808;52.402;16.678;2022-07-04T09:47:55;27.10;99.90
19344;DHT22;9808;52.402;16.678;2022-07-04T09:50:23;27.20;99.90
19344;DHT22;9808;52.402;16.678;2022-07-04T09:55:30;27.10;99.90
19344;DHT22;9808;52.402;16.678;2022-07-04T09:58:12;27.30;99.90
19344;DHT22;9808;52.402;16.678;2022-07-04T10:00:43;27.40;99.90
19344;DHT22;9808;52.402;16.678;2022-07-04T10:03:21;27.50;99.90
19344;DHT22;9808;52.402;16.678;2022-07-04T10:08:33;27.70;99.90
19344;DHT22;9808;52.402;16.678;2022-07-04T10:11:02;27.80;99.90
19344;DHT22;9808;52.402;16.678;2022-07-04T10:13:36;27.90;99.90
19344;DHT22;9808;52.402;16.678;2022-07-04T10:16:03;28.00;99.90
19344;DHT22;9808;52.402;16.678;2022-07-04T10:18:30;28.10;99.90
19344;DHT22;9808;52.402;16.678;2022-07-04T10:20:57;28.40;99.90
19344;DHT22;9808;52.402;16.678;2022-07-04T10:23:25;28.20;99.90
19344;DHT22;9808;52.402;16.678;2022-07-04T10:25:58;28.20;99.90
19344;DHT22;9808;52.402;16.678;2022-07-04T10:28:26;28.30;99.90
19344;DHT22;9808;52.402;16.678;2022-07-04T10:30:56;28.30;99.90
19344;DHT22;9808;52.402;16.678;2022-07-04T10:33:26;28.30;99.90
19344;DHT22;9808;52.402;16.678;2022-07-04T10:35:54;28.50;99.90
19344;DHT22;9808;52.402;16.678;2022-07-04T10:38:23;28.60;99.90
19344;DHT22;9808;52.402;16.678;2022-07-04T10:40:52;28.70;99.90
19344;DHT22;9808;52.402;16.678;2022-07-04T10:45:52;28.90;99.90
19344;DHT22;9808;52.402;16.678;2022-07-04T10:48:23;28.90;99.90
19344;DHT22;9808;52.402;16.678;2022-07-04T10:51:03;29.00;99.90
19344;DHT22;9808;52.402;16.678;2022-07-04T10:53:31;28.90;99.90
19344;DHT22;9808;52.402;16.678;2022-07-04T10:58:44;29.10;99.90
19344;DHT22;9808;52.402;16.678;2022-07-04T11:01:11;29.10;99.90
19344;DHT22;9808;52.402;16.678;2022-07-04T11:03:51;29.00;99.90
19344;DHT22;9808;52.402;16.678;2022-07-04T11:09:18;28.80;99.90
19344;DHT22;9808;52.402;16.678;2022-07-04T11:16:57;28.70;99.90
19344;DHT22;9808;52.402;16.678;2022-07-04T11:19:24;28.90;99.90
19344;DHT22;9808;52.402;16.678;2022-07-04T11:21:50;28.90;99.90
19344;DHT22;9808;52.402;16.678;2022-07-04T11:24:17;28.80;99.90
19344;DHT22;9808;52.402;16.678;2022-07-04T11:26:45;28.80;99.90
19344;DHT22;9808;52.402;16.678;2022-07-04T11:29:13;28.80;99.90
19344;DHT22;9808;52.402;16.678;2022-07-04T11:31:44;28.80;99.90
19344;DHT22;9808;52.402;16.678;2022-07-04T11:34:12;28.80;99.90
19344;DHT22;9808;52.402;16.678;2022-07-04T11:36:40;28.60;99.90
19344;DHT22;9808;52.402;16.678;2022-07-04T11:39:08;28.50;99.90
19344;DHT22;9808;52.402;16.678;2022-07-04T11:41:38;28.40;99.90
19344;DHT22;9808;52.402;16.678;2022-07-04T11:44:25;28.50;99.90
19344;DHT22;9808;52.402;16.678;2022-07-04T11:47:13;28.60;99.90
19344;DHT22;9808;52.402;16.678;2022-07-04T11:50:06;28.70;99.90
19344;DHT22;9808;52.402;16.678;2022-07-04T11:52:47;28.80;99.90
19344;DHT22;9808;52.402;16.678;2022-07-04T11:55:34;28.90;99.90
19344;DHT22;9808;52.402;16.678;2022-07-04T11:58:01;29.00;99.90
19344;DHT22;9808;52.402;16.678;2022-07-04T12:00:29;29.00;99.90
19344;DHT22;9808;52.402;16.678;2022-07-04T12:03:00;29.10;99.90
19344;DHT22;9808;52.402;16.678;2022-07-04T12:05:28;29.00;99.90
19344;DHT22;9808;52.402;16.678;2022-07-04T12:07:55;29.00;99.90
19344;DHT22;9808;52.402;16.678;2022-07-04T12:10:41;28.90;99.90
19344;DHT22;9808;52.402;16.678;2022-07-04T12:13:14;28.80;99.90
19344;DHT22;9808;52.402;16.678;2022-07-04T12:15:45;28.70;99.90
19344;DHT22;9808;52.402;16.678;2022-07-04T12:18:22;28.70;99.90
19344;DHT22;9808;52.402;16.678;2022-07-04T12:20:52;28.50;99.90
19344;DHT22;9808;52.402;16.678;2022-07-04T12:23:21;28.50;99.90
19344;DHT22;9808;52.402;16.678;2022-07-04T12:25:50;28.60;99.90
19344;DHT22;9808;52.402;16.678;2022-07-04T12:28:18;28.70;99.90
19344;DHT22;9808;52.402;16.678;2022-07-04T12:30:58;28.90;99.90
19344;DHT22;9808;52.402;16.678;2022-07-04T12:33:28;28.90;99.90
19344;DHT22;9808;52.402;16.678;2022-07-04T12:36:05;29.00;99.90
19344;DHT22;9808;52.402;16.678;2022-07-04T12:38:37;29.10;99.90
19344;DHT22;9808;52.402;16.678;2022-07-04T12:41:10;29.10;99.90
19344;DHT22;9808;52.402;16.678;2022-07-04T12:46:35;29.20;99.90
19344;DHT22;9808;52.402;16.678;2022-07-04T12:49:23;29.20;99.90
19344;DHT22;9808;52.402;16.678;2022-07-04T12:51:50;29.30;99.90
19344;DHT22;9808;52.402;16.678;2022-07-04T12:54:17;29.20;99.90
19344;DHT22;9808;52.402;16.678;2022-07-04T12:56:46;29.30;99.90
19344;DHT22;9808;52.402;16.678;2022-07-04T12:59:15;29.10;99.90
19344;DHT22;9808;52.402;16.678;2022-07-04T13:01:45;29.00;99.90
19344;DHT22;9808;52.402;16.678;2022-07-04T13:04:13;28.90;99.90
19344;DHT22;9808;52.402;16.678;2022-07-04T13:06:40;28.80;99.90
19344;DHT22;9808;52.402;16.678;2022-07-04T13:09:07;28.80;99.90
19344;DHT22;9808;52.402;16.678;2022-07-04T13:11:36;28.80;99.90
19344;DHT22;9808;52.402;16.678;2022-07-04T13:14:23;28.80;99.90
19344;DHT22;9808;52.402;16.678;2022-07-04T13:16:50;28.70;99.90
19344;DHT22;9808;52.402;16.678;2022-07-04T13:19:17;28.50;99.90
19344;DHT22;9808;52.402;16.678;2022-07-04T13:21:44;28.40;99.90
19344;DHT22;9808;52.402;16.678;2022-07-04T13:24:12;28.40;99.90
19344;DHT22;9808;52.402;16.678;2022-07-04T13:26:39;28.40;99.90
19344;DHT22;9808;52.402;16.678;2022-07-04T13:29:08;28.40;99.90
19344;DHT22;9808;52.402;16.678;2022-07-04T13:31:38;28.30;99.90
19344;DHT22;9808;52.402;16.678;2022-07-04T13:34:05;28.20;99.90
19344;DHT22;9808;52.402;16.678;2022-07-04T13:36:32;28.20;99.90
19344;DHT22;9808;52.402;16.678;2022-07-04T13:38:59;28.20;99.90
19344;DHT22;9808;52.402;16.678;2022-07-04T13:41:32;28.20;99.90
19344;DHT22;9808;52.402;16.678;2022-07-04T13:44:00;28.20;99.90
19344;DHT22;9808;52.402;16.678;2022-07-04T13:46:28;27.60;99.90
19344;DHT22;9808;52.402;16.678;2022-07-04T13:48:56;28.20;99.90
19344;DHT22;9808;52.402;16.678;2022-07-04T13:51:23;28.10;99.90
19344;DHT22;9808;52.402;16.678;2022-07-04T13:53:50;28.10;99.90
19344;DHT22;9808;52.402;16.678;2022-07-04T13:56:18;28.10;99.90
19344;DHT22;9808;52.402;16.678;2022-07-04T13:58:45;28.10;99.90
19344;DHT22;9808;52.402;16.678;2022-07-04T14:01:13;28.00;99.90
19344;DHT22;9808;52.402;16.678;2022-07-04T14:03:42;28.00;99.90
19344;DHT22;9808;52.402;16.678;2022-07-04T14:06:09;27.90;99.90
19344;DHT22;9808;52.402;16.678;2022-07-04T14:08:37;27.90;99.90
19344;DHT22;9808;52.402;16.678;2022-07-04T14:11:04;28.00;99.90
19344;DHT22;9808;52.402;16.678;2022-07-04T14:13:31;28.00;99.90
19344;DHT22;9808;52.402;16.678;2022-07-04T14:15:59;28.10;99.90
19344;DHT22;9808;52.402;16.678;2022-07-04T14:18:26;28.10;99.90
19344;DHT22;9808;52.402;16.678;2022-07-04T14:20:53;28.10;99.90
19344;DHT22;9808;52.402;16.678;2022-07-04T14:23:20;28.10;99.90
19344;DHT22;9808;52.402;16.678;2022-07-04T14:26:06;28.20;99.90
19344;DHT22;9808;52.402;16.678;2022-07-04T14:28:33;28.50;99.90
19344;DHT22;9808;52.402;16.678;2022-07-04T14:31:00;28.10;99.90
19344;DHT22;9808;52.402;16.678;2022-07-04T14:33:27;28.10;99.90
19344;DHT22;9808;52.402;16.678;2022-07-04T14:35:54;28.00;99.90
19344;DHT22;9808;52.402;16.678;2022-07-04T14:38:21;28.00;99.90
19344;DHT22;9808;52.402;16.678;2022-07-04T14:40:48;27.90;99.90
19344;DHT22;9808;52.402;16.678;2022-07-04T14:43:16;27.80;99.90
19344;DHT22;9808;52.402;16.678;2022-07-04T14:45:46;27.70;99.90
19344;DHT22;9808;52.402;16.678;2022-07-04T14:48:16;27.60;99.90
19344;DHT22;9808;52.402;16.678;2022-07-04T14:50:43;27.60;99.90
19344;DHT22;9808;52.402;16.678;2022-07-04T14:53:10;27.60;99.90
19344;DHT22;9808;52.402;16.678;2022-07-04T14:55:37;27.60;99.90
19344;DHT22;9808;52.402;16.678;2022-07-04T14:58:04;27.50;99.90
19344;DHT22;9808;52.402;16.678;2022-07-04T15:00:31;27.50;99.90
19344;DHT22;9808;52.402;16.678;2022-07-04T15:02:58;27.40;99.90
19344;DHT22;9808;52.402;16.678;2022-07-04T15:05:25;27.40;99.90
19344;DHT22;9808;52.402;16.678;2022-07-04T15:07:52;27.40;99.90
19344;DHT22;9808;52.402;16.678;2022-07-04T15:10:22;27.40;99.90
19344;DHT22;9808;52.402;16.678;2022-07-04T15:13:10;27.40;99.90
19344;DHT22;9808;52.402;16.678;2022-07-04T15:15:36;27.50;99.90
19344;DHT22;9808;52.402;16.678;2022-07-04T15:18:10;27.50;99.90
19344;DHT22;9808;52.402;16.678;2022-07-04T15:20:38;27.50;99.90
19344;DHT22;9808;52.402;16.678;2022-07-04T15:23:23;27.50;99.90
19344;DHT22;9808;52.402;16.678;2022-07-04T15:26:09;27.60;99.90
19344;DHT22;9808;52.402;16.678;2022-07-04T15:28:36;27.50;99.90
19344;DHT22;9808;52.402;16.678;2022-07-04T15:31:03;27.50;99.90
19344;DHT22;9808;52.402;16.678;2022-07-04T15:33:30;27.50;99.90
19344;DHT22;9808;52.402;16.678;2022-07-04T15:35:57;27.50;99.90
19344;DHT22;9808;52.402;16.678;2022-07-04T15:38:24;27.40;99.90
19344;DHT22;9808;52.402;16.678;2022-07-04T15:40:54;27.40;99.90
19344;DHT22;9808;52.402;16.678;2022-07-04T15:43:20;27.40;99.90
19344;DHT22;9808;52.402;16.678;2022-07-04T15:45:47;27.40;99.90
19344;DHT22;9808;52.402;16.678;2022-07-04T15:48:14;27.40;99.90
19344;DHT22;9808;52.402;16.678;2022-07-04T15:50:41;27.30;99.90
19344;DHT22;9808;52.402;16.678;2022-07-04T15:53:08;27.40;99.90
19344;DHT22;9808;52.402;16.678;2022-07-04T15:55:37;27.40;99.90
19344;DHT22;9808;52.402;16.678;2022-07-04T15:58:03;27.40;99.90
19344;DHT22;9808;52.402;16.678;2022-07-04T16:00:30;27.30;99.90
19344;DHT22;9808;52.402;16.678;2022-07-04T16:02:57;27.30;99.90